Terminal Aerodrome Forecast
Issued by NWS

Home | Current Version | Previous Version | Text Only | Print | Product List | Glossary On
Versions: 1 2 3 4 5 6 7 8 9 10 11 12 13 14 15 16 17 18 19 20 21 22
000
FTUS46 KMTR 280546
TAFSTS
TAF
KSTS 280546Z 2806/0106 VRB03KT P6SM SKC
      TEMPO 2808/2812 1/4SM FZFG VV001
     FM281200 VRB03KT 1/4SM FZFG VV001
     FM281500 VRB03KT P6SM SKC
     FM282100 30006KT P6SM SKC
     FM010300 VRB03KT P6SM SKC=

USA.gov is the U.S. government's official web portal to all federal, state and local government web resources and services.